createdAt,value
2019-05-14T00:00:52.175Z,12.86
2019-05-14T00:15:52.402Z,12.43
2019-05-14T00:30:52.199Z,12.10
2019-05-14T00:45:51.117Z,11.99
2019-05-14T01:00:49.663Z,11.99
2019-05-14T01:30:53.089Z,11.95
2019-05-14T01:45:52.167Z,12.00
2019-05-14T02:00:52.100Z,12.04
2019-05-14T02:15:51.993Z,12.01
2019-05-14T02:30:57.635Z,12.02
2019-05-14T02:46:09.491Z,11.91
2019-05-14T03:00:50.084Z,12.01
2019-05-14T03:15:50.095Z,12.19
2019-05-14T03:30:52.167Z,12.20
2019-05-14T03:45:49.816Z,12.34
2019-05-14T04:15:49.919Z,12.08
2019-05-14T04:30:55.088Z,11.87
2019-05-14T04:45:50.018Z,11.52
2019-05-14T05:00:49.908Z,11.42
2019-05-14T05:15:51.793Z,11.49
2019-05-14T05:30:51.352Z,11.80
2019-05-14T05:45:49.748Z,12.05
2019-05-14T06:00:49.917Z,11.95
2019-05-14T06:15:52.437Z,11.81
2019-05-14T06:30:49.997Z,12.14
2019-05-14T06:45:49.846Z,12.18
2019-05-14T07:00:49.800Z,12.42
2019-05-14T07:15:49.256Z,12.89
2019-05-14T07:30:49.295Z,13.17
2019-05-14T07:45:49.397Z,13.57
2019-05-14T08:00:49.362Z,13.72
2019-05-14T08:15:49.547Z,14.36
2019-05-14T08:30:49.427Z,15.08
2019-05-14T08:45:49.376Z,15.16
2019-05-14T09:00:49.556Z,16.02
2019-05-14T09:15:49.838Z,16.58
2019-05-14T09:30:49.209Z,16.65
2019-05-14T09:45:49.646Z,17.14
2019-05-14T10:00:49.610Z,16.79
2019-05-14T10:15:50.043Z,16.57
2019-05-14T10:30:52.974Z,16.20
2019-05-14T10:45:49.926Z,15.73
2019-05-14T11:00:52.819Z,15.87
2019-05-14T11:15:49.237Z,15.80
2019-05-14T11:30:55.245Z,15.40
2019-05-14T11:45:50.117Z,15.75
2019-05-14T12:00:50.044Z,15.36
2019-05-14T12:15:49.673Z,14.74
2019-05-14T12:30:49.386Z,14.67
2019-05-14T12:45:49.567Z,14.31
2019-05-14T13:00:49.503Z,14.21
2019-05-14T13:15:53.829Z,14.08
2019-05-14T13:30:51.567Z,14.01
2019-05-14T13:45:51.556Z,13.85
2019-05-14T14:00:52.113Z,14.52
2019-05-14T14:15:49.848Z,14.52
2019-05-14T14:30:49.768Z,14.64
2019-05-14T14:45:51.406Z,14.61
2019-05-14T15:00:50.155Z,13.94
2019-05-14T15:15:50.054Z,13.89
2019-05-14T15:30:50.256Z,13.68
2019-05-14T15:45:49.949Z,13.41
2019-05-14T16:01:00.850Z,13.51
2019-05-14T16:15:49.272Z,13.58
2019-05-14T16:30:50.695Z,13.63
2019-05-14T16:45:56.052Z,13.74
2019-05-14T17:30:51.529Z,13.81
2019-05-14T17:45:53.922Z,13.77
2019-05-14T18:00:51.447Z,13.69
2019-05-14T18:30:51.219Z,13.50
2019-05-14T18:45:55.428Z,13.33
2019-05-14T19:00:58.775Z,13.33
2019-05-14T19:15:59.115Z,13.30
2019-05-14T19:31:00.616Z,13.37
2019-05-14T19:45:51.309Z,13.42
2019-05-14T20:00:49.924Z,13.54
2019-05-14T20:30:51.131Z,13.81
2019-05-14T20:45:53.992Z,13.66
2019-05-14T21:00:50.112Z,13.16
2019-05-14T21:15:55.226Z,12.65
2019-05-14T21:30:49.157Z,12.23
2019-05-14T21:45:51.748Z,11.83
2019-05-14T22:00:52.939Z,11.51
2019-05-14T22:15:49.468Z,11.34
2019-05-14T22:30:51.481Z,11.19
2019-05-14T22:45:49.907Z,11.05
2019-05-14T23:01:02.164Z,10.99
2019-05-14T23:15:52.751Z,10.87
2019-05-14T23:30:49.239Z,10.78
2019-05-14T23:45:49.347Z,10.89
